sensor_id;sensor_type;location;lat;lon;timestamp;temperature;humidity
24087;DHT22;22893;50.572;7.234;2023-02-15T00:02:05;21.60;51.40
24087;DHT22;22893;50.572;7.234;2023-02-15T00:04:32;21.60;51.40
24087;DHT22;22893;50.572;7.234;2023-02-15T00:07:17;21.60;51.30
24087;DHT22;22893;50.572;7.234;2023-02-15T00:09:48;21.60;51.10
24087;DHT22;22893;50.572;7.234;2023-02-15T00:12:15;21.60;51.20
24087;DHT22;22893;50.572;7.234;2023-02-15T00:14:43;21.60;51.70
24087;DHT22;22893;50.572;7.234;2023-02-15T00:17:11;21.60;51.00
24087;DHT22;22893;50.572;7.234;2023-02-15T00:19:38;21.50;50.90
24087;DHT22;22893;50.572;7.234;2023-02-15T00:22:06;21.50;50.90
24087;DHT22;22893;50.572;7.234;2023-02-15T00:24:34;21.50;51.00
24087;DHT22;22893;50.572;7.234;2023-02-15T00:27:02;21.50;50.90
24087;DHT22;22893;50.572;7.234;2023-02-15T00:29:29;21.50;50.70
24087;DHT22;22893;50.572;7.234;2023-02-15T00:31:58;21.50;50.70
24087;DHT22;22893;50.572;7.234;2023-02-15T00:34:27;21.50;50.70
24087;DHT22;22893;50.572;7.234;2023-02-15T00:36:55;21.50;51.00
24087;DHT22;22893;50.572;7.234;2023-02-15T00:39:22;21.50;50.90
24087;DHT22;22893;50.572;7.234;2023-02-15T00:41:50;21.50;50.70
24087;DHT22;22893;50.572;7.234;2023-02-15T00:44:18;21.50;50.70
24087;DHT22;22893;50.572;7.234;2023-02-15T00:46:46;21.50;50.70
24087;DHT22;22893;50.572;7.234;2023-02-15T00:49:13;21.50;50.60
24087;DHT22;22893;50.572;7.234;2023-02-15T00:51:41;21.50;50.70
24087;DHT22;22893;50.572;7.234;2023-02-15T00:54:08;21.50;50.60
24087;DHT22;22893;50.572;7.234;2023-02-15T00:56:36;21.50;50.60
24087;DHT22;22893;50.572;7.234;2023-02-15T00:59:03;21.50;50.70
24087;DHT22;22893;50.572;7.234;2023-02-15T01:01:31;21.50;50.70
24087;DHT22;22893;50.572;7.234;2023-02-15T01:03:59;21.50;50.70
24087;DHT22;22893;50.572;7.234;2023-02-15T01:06:26;21.50;50.60
24087;DHT22;22893;50.572;7.234;2023-02-15T01:08:54;21.50;50.70
24087;DHT22;22893;50.572;7.234;2023-02-15T01:11:22;21.50;50.80
24087;DHT22;22893;50.572;7.234;2023-02-15T01:13:52;21.50;50.70
24087;DHT22;22893;50.572;7.234;2023-02-15T01:16:21;21.50;50.70
24087;DHT22;22893;50.572;7.234;2023-02-15T01:18:49;21.50;51.30
24087;DHT22;22893;50.572;7.234;2023-02-15T01:21:19;21.50;50.70
24087;DHT22;22893;50.572;7.234;2023-02-15T01:23:48;21.50;49.80
24087;DHT22;22893;50.572;7.234;2023-02-15T01:26:16;21.50;50.40
24087;DHT22;22893;50.572;7.234;2023-02-15T01:28:45;21.50;50.60
24087;DHT22;22893;50.572;7.234;2023-02-15T01:31:15;21.50;50.60
24087;DHT22;22893;50.572;7.234;2023-02-15T01:33:43;21.40;50.40
24087;DHT22;22893;50.572;7.234;2023-02-15T01:36:11;21.40;50.40
24087;DHT22;22893;50.572;7.234;2023-02-15T01:38:39;21.40;50.40
24087;DHT22;22893;50.572;7.234;2023-02-15T01:41:06;21.40;50.40
24087;DHT22;22893;50.572;7.234;2023-02-15T01:43:56;21.40;50.50
24087;DHT22;22893;50.572;7.234;2023-02-15T01:46:38;21.40;50.30
24087;DHT22;22893;50.572;7.234;2023-02-15T01:49:15;21.40;50.40
24087;DHT22;22893;50.572;7.234;2023-02-15T01:51:45;21.40;50.40
24087;DHT22;22893;50.572;7.234;2023-02-15T01:54:19;21.40;50.40
24087;DHT22;22893;50.572;7.234;2023-02-15T01:56:47;21.40;50.40
24087;DHT22;22893;50.572;7.234;2023-02-15T01:59:18;21.40;50.40
24087;DHT22;22893;50.572;7.234;2023-02-15T02:01:46;21.40;50.40
24087;DHT22;22893;50.572;7.234;2023-02-15T02:04:35;21.40;51.10
24087;DHT22;22893;50.572;7.234;2023-02-15T02:07:04;21.40;50.40
24087;DHT22;22893;50.572;7.234;2023-02-15T02:09:32;21.40;50.40
24087;DHT22;22893;50.572;7.234;2023-02-15T02:12:00;21.40;50.30
24087;DHT22;22893;50.572;7.234;2023-02-15T02:14:28;21.40;50.40
24087;DHT22;22893;50.572;7.234;2023-02-15T02:28:22;21.40;50.30
24087;DHT22;22893;50.572;7.234;2023-02-15T02:33:45;21.30;50.10
24087;DHT22;22893;50.572;7.234;2023-02-15T02:36:24;21.30;50.40
24087;DHT22;22893;50.572;7.234;2023-02-15T02:39:26;21.40;50.40
24087;DHT22;22893;50.572;7.234;2023-02-15T02:41:59;21.40;50.40
24087;DHT22;22893;50.572;7.234;2023-02-15T02:47:19;21.30;50.20
24087;DHT22;22893;50.572;7.234;2023-02-15T02:49:46;21.30;48.50
24087;DHT22;22893;50.572;7.234;2023-02-15T02:52:48;21.20;49.00
24087;DHT22;22893;50.572;7.234;2023-02-15T02:55:28;21.20;50.40
24087;DHT22;22893;50.572;7.234;2023-02-15T03:00:50;21.20;49.90
24087;DHT22;22893;50.572;7.234;2023-02-15T03:03:26;21.30;50.00
24087;DHT22;22893;50.572;7.234;2023-02-15T03:05:59;21.20;50.00
24087;DHT22;22893;50.572;7.234;2023-02-15T03:08:35;21.20;50.00
24087;DHT22;22893;50.572;7.234;2023-02-15T03:11:00;21.20;50.00
24087;DHT22;22893;50.572;7.234;2023-02-15T03:13:32;21.20;50.00
24087;DHT22;22893;50.572;7.234;2023-02-15T03:16:01;21.20;50.00
24087;DHT22;22893;50.572;7.234;2023-02-15T03:18:50;21.20;50.00
24087;DHT22;22893;50.572;7.234;2023-02-15T03:21:35;21.20;50.10
24087;DHT22;22893;50.572;7.234;2023-02-15T03:24:06;21.20;50.00
24087;DHT22;22893;50.572;7.234;2023-02-15T03:26:34;21.20;50.00
24087;DHT22;22893;50.572;7.234;2023-02-15T03:29:03;21.20;50.10
24087;DHT22;22893;50.572;7.234;2023-02-15T03:31:36;21.20;50.00
24087;DHT22;22893;50.572;7.234;2023-02-15T03:34:04;21.20;50.00
24087;DHT22;22893;50.572;7.234;2023-02-15T03:36:58;21.20;50.00
24087;DHT22;22893;50.572;7.234;2023-02-15T03:39:31;21.20;50.00
24087;DHT22;22893;50.572;7.234;2023-02-15T03:42:06;21.20;50.00
24087;DHT22;22893;50.572;7.234;2023-02-15T03:44:37;21.20;50.00
24087;DHT22;22893;50.572;7.234;2023-02-15T03:47:15;21.20;50.00
24087;DHT22;22893;50.572;7.234;2023-02-15T03:49:54;21.20;50.00
24087;DHT22;22893;50.572;7.234;2023-02-15T03:52:24;21.20;50.00
24087;DHT22;22893;50.572;7.234;2023-02-15T03:54:53;21.20;50.00
24087;DHT22;22893;50.572;7.234;2023-02-15T03:57:24;21.20;50.00
24087;DHT22;22893;50.572;7.234;2023-02-15T04:00:19;21.20;50.00
24087;DHT22;22893;50.572;7.234;2023-02-15T04:03:15;21.20;50.00
24087;DHT22;22893;50.572;7.234;2023-02-15T04:05:42;21.20;50.00
24087;DHT22;22893;50.572;7.234;2023-02-15T04:08:10;21.20;50.00
24087;DHT22;22893;50.572;7.234;2023-02-15T04:10:39;21.20;50.00
24087;DHT22;22893;50.572;7.234;2023-02-15T04:13:30;21.20;50.00
24087;DHT22;22893;50.572;7.234;2023-02-15T04:15:54;21.20;49.90
24087;DHT22;22893;50.572;7.234;2023-02-15T04:18:32;21.20;49.90
24087;DHT22;22893;50.572;7.234;2023-02-15T04:21:18;21.20;49.90
24087;DHT22;22893;50.572;7.234;2023-02-15T04:24:04;21.10;50.00
24087;DHT22;22893;50.572;7.234;2023-02-15T04:26:50;21.20;50.00
24087;DHT22;22893;50.572;7.234;2023-02-15T04:29:22;21.20;50.20
24087;DHT22;22893;50.572;7.234;2023-02-15T04:31:51;21.20;50.10
24087;DHT22;22893;50.572;7.234;2023-02-15T04:34:18;21.20;50.10
24087;DHT22;22893;50.572;7.234;2023-02-15T04:36:46;21.20;50.10
24087;DHT22;22893;50.572;7.234;2023-02-15T04:39:14;21.20;50.10
24087;DHT22;22893;50.572;7.234;2023-02-15T04:41:42;21.20;50.10
24087;DHT22;22893;50.572;7.234;2023-02-15T04:44:10;21.20;50.00
24087;DHT22;22893;50.572;7.234;2023-02-15T04:46:38;21.20;50.10
24087;DHT22;22893;50.572;7.234;2023-02-15T04:49:05;21.20;49.00
24087;DHT22;22893;50.572;7.234;2023-02-15T04:51:33;21.20;49.80
24087;DHT22;22893;50.572;7.234;2023-02-15T04:54:00;21.20;50.20
24087;DHT22;22893;50.572;7.234;2023-02-15T04:56:28;21.20;50.30
24087;DHT22;22893;50.572;7.234;2023-02-15T04:58:56;21.30;50.30
24087;DHT22;22893;50.572;7.234;2023-02-15T05:01:24;21.20;50.30
24087;DHT22;22893;50.572;7.234;2023-02-15T05:03:51;21.30;50.30
24087;DHT22;22893;50.572;7.234;2023-02-15T05:06:19;21.30;50.30
24087;DHT22;22893;50.572;7.234;2023-02-15T05:08:46;21.20;50.30
24087;DHT22;22893;50.572;7.234;2023-02-15T05:11:14;21.30;50.30
24087;DHT22;22893;50.572;7.234;2023-02-15T05:13:42;21.30;50.30
24087;DHT22;22893;50.572;7.234;2023-02-15T05:16:09;21.30;50.30
24087;DHT22;22893;50.572;7.234;2023-02-15T05:18:37;21.30;50.30
24087;DHT22;22893;50.572;7.234;2023-02-15T05:21:04;21.30;50.30
24087;DHT22;22893;50.572;7.234;2023-02-15T05:23:32;21.30;50.30
24087;DHT22;22893;50.572;7.234;2023-02-15T05:26:00;21.30;50.30
24087;DHT22;22893;50.572;7.234;2023-02-15T05:28:45;21.30;50.30
24087;DHT22;22893;50.572;7.234;2023-02-15T05:31:15;21.30;50.40
24087;DHT22;22893;50.572;7.234;2023-02-15T05:33:43;21.30;50.40
24087;DHT22;22893;50.572;7.234;2023-02-15T05:36:11;21.30;50.40
24087;DHT22;22893;50.572;7.234;2023-02-15T05:38:40;21.30;50.60
24087;DHT22;22893;50.572;7.234;2023-02-15T05:41:08;21.30;50.50
24087;DHT22;22893;50.572;7.234;2023-02-15T05:43:37;21.20;50.50
24087;DHT22;22893;50.572;7.234;2023-02-15T05:46:05;21.30;50.60
24087;DHT22;22893;50.572;7.234;2023-02-15T05:48:33;21.30;51.30
24087;DHT22;22893;50.572;7.234;2023-02-15T05:53:34;21.30;50.80
24087;DHT22;22893;50.572;7.234;2023-02-15T05:56:03;21.30;50.80
24087;DHT22;22893;50.572;7.234;2023-02-15T05:58:33;21.30;50.80
24087;DHT22;22893;50.572;7.234;2023-02-15T06:03:41;21.30;50.60
24087;DHT22;22893;50.572;7.234;2023-02-15T06:06:09;21.30;50.60
24087;DHT22;22893;50.572;7.234;2023-02-15T06:08:38;21.30;50.50
24087;DHT22;22893;50.572;7.234;2023-02-15T06:11:06;21.30;50.50
24087;DHT22;22893;50.572;7.234;2023-02-15T06:13:34;21.30;50.50
24087;DHT22;22893;50.572;7.234;2023-02-15T06:16:02;21.30;50.50
24087;DHT22;22893;50.572;7.234;2023-02-15T06:18:30;21.30;50.40
24087;DHT22;22893;50.572;7.234;2023-02-15T06:20:57;21.30;50.40
24087;DHT22;22893;50.572;7.234;2023-02-15T06:23:25;21.30;50.30
24087;DHT22;22893;50.572;7.234;2023-02-15T06:25:52;21.30;50.40
24087;DHT22;22893;50.572;7.234;2023-02-15T06:28:20;21.30;50.40
24087;DHT22;22893;50.572;7.234;2023-02-15T06:30:47;21.30;50.40
24087;DHT22;22893;50.572;7.234;2023-02-15T06:33:15;21.30;50.40
24087;DHT22;22893;50.572;7.234;2023-02-15T06:35:42;21.30;50.40
24087;DHT22;22893;50.572;7.234;2023-02-15T06:38:10;21.30;50.30
24087;DHT22;22893;50.572;7.234;2023-02-15T06:40:38;21.30;50.50
24087;DHT22;22893;50.572;7.234;2023-02-15T06:43:05;21.30;50.50
24087;DHT22;22893;50.572;7.234;2023-02-15T06:45:33;21.30;50.60
24087;DHT22;22893;50.572;7.234;2023-02-15T06:48:00;21.30;50.60
24087;DHT22;22893;50.572;7.234;2023-02-15T06:50:28;21.30;50.70
24087;DHT22;22893;50.572;7.234;2023-02-15T06:52:56;21.30;50.80
24087;DHT22;22893;50.572;7.234;2023-02-15T06:55:25;21.30;50.70
24087;DHT22;22893;50.572;7.234;2023-02-15T06:57:52;21.30;50.70
24087;DHT22;22893;50.572;7.234;2023-02-15T07:00:21;21.30;50.70
24087;DHT22;22893;50.572;7.234;2023-02-15T07:02:57;21.30;50.40
24087;DHT22;22893;50.572;7.234;2023-02-15T07:05:25;21.30;50.60
24087;DHT22;22893;50.572;7.234;2023-02-15T07:07:58;21.30;50.70
24087;DHT22;22893;50.572;7.234;2023-02-15T07:10:26;21.30;50.50
24087;DHT22;22893;50.572;7.234;2023-02-15T07:12:54;21.30;50.60
24087;DHT22;22893;50.572;7.234;2023-02-15T07:15:21;21.30;50.70
24087;DHT22;22893;50.572;7.234;2023-02-15T07:17:49;21.30;50.40
24087;DHT22;22893;50.572;7.234;2023-02-15T07:20:20;21.40;50.70
24087;DHT22;22893;50.572;7.234;2023-02-15T07:22:48;21.40;50.50
24087;DHT22;22893;50.572;7.234;2023-02-15T07:25:17;21.40;50.60
24087;DHT22;22893;50.572;7.234;2023-02-15T07:27:45;21.40;50.70
24087;DHT22;22893;50.572;7.234;2023-02-15T07:30:14;21.40;50.60
24087;DHT22;22893;50.572;7.234;2023-02-15T07:32:43;21.40;50.60
24087;DHT22;22893;50.572;7.234;2023-02-15T07:35:29;21.40;50.50
24087;DHT22;22893;50.572;7.234;2023-02-15T07:37:56;21.40;50.60
24087;DHT22;22893;50.572;7.234;2023-02-15T07:40:24;21.40;50.40
24087;DHT22;22893;50.572;7.234;2023-02-15T07:42:52;21.40;50.40
24087;DHT22;22893;50.572;7.234;2023-02-15T07:45:21;21.40;50.40
24087;DHT22;22893;50.572;7.234;2023-02-15T07:47:49;21.40;50.40
24087;DHT22;22893;50.572;7.234;2023-02-15T07:50:17;21.40;50.40
24087;DHT22;22893;50.572;7.234;2023-02-15T07:52:45;21.40;50.40
24087;DHT22;22893;50.572;7.234;2023-02-15T07:55:12;21.40;50.40
24087;DHT22;22893;50.572;7.234;2023-02-15T07:57:47;21.40;50.40
24087;DHT22;22893;50.572;7.234;2023-02-15T08:00:17;21.40;50.40
24087;DHT22;22893;50.572;7.234;2023-02-15T08:02:52;21.40;50.40
24087;DHT22;22893;50.572;7.234;2023-02-15T08:05:21;21.40;50.40
24087;DHT22;22893;50.572;7.234;2023-02-15T08:07:49;21.40;50.40
24087;DHT22;22893;50.572;7.234;2023-02-15T08:10:16;21.40;50.40
24087;DHT22;22893;50.572;7.234;2023-02-15T08:12:46;21.40;50.40
24087;DHT22;22893;50.572;7.234;2023-02-15T08:15:13;21.40;50.40
24087;DHT22;22893;50.572;7.234;2023-02-15T08:17:41;21.40;50.40
24087;DHT22;22893;50.572;7.234;2023-02-15T08:20:09;21.40;50.50
24087;DHT22;22893;50.572;7.234;2023-02-15T08:22:36;21.40;50.40
24087;DHT22;22893;50.572;7.234;2023-02-15T08:25:04;21.40;50.50
24087;DHT22;22893;50.572;7.234;2023-02-15T08:27:32;21.40;50.40
24087;DHT22;22893;50.572;7.234;2023-02-15T08:30:00;21.40;51.10
24087;DHT22;22893;50.572;7.234;2023-02-15T08:32:27;21.40;50.40
24087;DHT22;22893;50.572;7.234;2023-02-15T08:34:55;21.40;50.40
24087;DHT22;22893;50.572;7.234;2023-02-15T08:37:22;21.40;50.40
24087;DHT22;22893;50.572;7.234;2023-02-15T08:39:50;21.40;51.20
24087;DHT22;22893;50.572;7.234;2023-02-15T08:42:18;21.40;50.40
24087;DHT22;22893;50.572;7.234;2023-02-15T08:44:47;21.40;50.40
24087;DHT22;22893;50.572;7.234;2023-02-15T08:47:16;21.40;50.50
24087;DHT22;22893;50.572;7.234;2023-02-15T08:49:44;21.40;50.50
24087;DHT22;22893;50.572;7.234;2023-02-15T08:52:11;21.40;50.50
24087;DHT22;22893;50.572;7.234;2023-02-15T08:54:39;21.40;50.40
24087;DHT22;22893;50.572;7.234;2023-02-15T08:57:06;21.50;50.40
24087;DHT22;22893;50.572;7.234;2023-02-15T08:59:34;21.40;50.40
24087;DHT22;22893;50.572;7.234;2023-02-15T09:02:01;21.40;50.40
24087;DHT22;22893;50.572;7.234;2023-02-15T09:04:29;21.40;50.20
24087;DHT22;22893;50.572;7.234;2023-02-15T09:06:57;21.40;50.30
24087;DHT22;22893;50.572;7.234;2023-02-15T09:09:24;21.40;50.40
24087;DHT22;22893;50.572;7.234;2023-02-15T09:11:52;21.50;50.40
24087;DHT22;22893;50.572;7.234;2023-02-15T09:14:20;21.40;50.30
24087;DHT22;22893;50.572;7.234;2023-02-15T09:16:49;21.40;50.40
24087;DHT22;22893;50.572;7.234;2023-02-15T09:19:20;21.50;51.00
24087;DHT22;22893;50.572;7.234;2023-02-15T09:21:48;21.50;50.30
24087;DHT22;22893;50.572;7.234;2023-02-15T09:24:17;21.50;50.40
24087;DHT22;22893;50.572;7.234;2023-02-15T09:26:46;21.50;50.50
24087;DHT22;22893;50.572;7.234;2023-02-15T09:29:15;21.40;50.40
24087;DHT22;22893;50.572;7.234;2023-02-15T09:31:45;21.40;50.40
24087;DHT22;22893;50.572;7.234;2023-02-15T09:34:16;21.50;50.40
24087;DHT22;22893;50.572;7.234;2023-02-15T09:36:44;21.50;51.20
24087;DHT22;22893;50.572;7.234;2023-02-15T09:39:22;21.50;50.40
24087;DHT22;22893;50.572;7.234;2023-02-15T10:11:55;21.50;50.40
24087;DHT22;22893;50.572;7.234;2023-02-15T10:14:31;21.50;50.50
24087;DHT22;22893;50.572;7.234;2023-02-15T10:17:02;21.50;50.40
24087;DHT22;22893;50.572;7.234;2023-02-15T16:27:57;22.30;53.20
24087;DHT22;22893;50.572;7.234;2023-02-15T16:30:34;22.20;53.20
24087;DHT22;22893;50.572;7.234;2023-02-15T16:33:13;22.20;53.10
24087;DHT22;22893;50.572;7.234;2023-02-15T16:35:57;22.20;53.10
24087;DHT22;22893;50.572;7.234;2023-02-15T16:41:17;22.20;53.10
24087;DHT22;22893;50.572;7.234;2023-02-15T16:43:47;22.20;53.10
24087;DHT22;22893;50.572;7.234;2023-02-15T16:46:30;22.20;53.00
24087;DHT22;22893;50.572;7.234;2023-02-15T16:49:00;22.20;53.00
24087;DHT22;22893;50.572;7.234;2023-02-15T16:51:33;22.20;53.10
24087;DHT22;22893;50.572;7.234;2023-02-15T16:54:07;22.20;53.00
24087;DHT22;22893;50.572;7.234;2023-02-15T16:56:35;22.20;52.90
24087;DHT22;22893;50.572;7.234;2023-02-15T16:59:03;22.20;52.90
24087;DHT22;22893;50.572;7.234;2023-02-15T17:01:32;22.20;52.90
24087;DHT22;22893;50.572;7.234;2023-02-15T17:07:04;22.20;52.90
24087;DHT22;22893;50.572;7.234;2023-02-15T17:09:32;22.20;52.80
24087;DHT22;22893;50.572;7.234;2023-02-15T17:12:00;22.20;53.50
24087;DHT22;22893;50.572;7.234;2023-02-15T17:14:32;22.20;52.80
24087;DHT22;22893;50.572;7.234;2023-02-15T17:17:12;22.20;52.70
24087;DHT22;22893;50.572;7.234;2023-02-15T17:19:54;22.20;52.70
24087;DHT22;22893;50.572;7.234;2023-02-15T17:22:24;22.20;52.70
24087;DHT22;22893;50.572;7.234;2023-02-15T17:25:01;22.20;52.70
24087;DHT22;22893;50.572;7.234;2023-02-15T17:27:31;22.20;52.80
24087;DHT22;22893;50.572;7.234;2023-02-15T17:30:15;22.20;53.30
24087;DHT22;22893;50.572;7.234;2023-02-15T17:32:34;22.10;52.40
24087;DHT22;22893;50.572;7.234;2023-02-15T17:35:14;22.10;52.40
24087;DHT22;22893;50.572;7.234;2023-02-15T17:42:50;22.00;52.40
24087;DHT22;22893;50.572;7.234;2023-02-15T17:45:19;22.00;52.70
24087;DHT22;22893;50.572;7.234;2023-02-15T17:47:48;22.10;52.80
24087;DHT22;22893;50.572;7.234;2023-02-15T17:50:24;22.10;52.70
24087;DHT22;22893;50.572;7.234;2023-02-15T17:52:53;22.10;52.70
24087;DHT22;22893;50.572;7.234;2023-02-15T17:55:23;22.10;52.70
24087;DHT22;22893;50.572;7.234;2023-02-15T17:58:03;22.10;52.70
24087;DHT22;22893;50.572;7.234;2023-02-15T18:00:32;22.10;52.70
24087;DHT22;22893;50.572;7.234;2023-02-15T18:03:18;22.10;52.70
24087;DHT22;22893;50.572;7.234;2023-02-15T18:06:04;22.10;52.70
24087;DHT22;22893;50.572;7.234;2023-02-15T18:08:49;22.10;52.60
24087;DHT22;22893;50.572;7.234;2023-02-15T18:11:35;22.10;52.60
24087;DHT22;22893;50.572;7.234;2023-02-15T18:14:08;22.10;52.60
24087;DHT22;22893;50.572;7.234;2023-02-15T18:16:41;22.10;52.50
24087;DHT22;22893;50.572;7.234;2023-02-15T18:19:17;22.10;52.40
24087;DHT22;22893;50.572;7.234;2023-02-15T18:21:45;22.10;52.50
24087;DHT22;22893;50.572;7.234;2023-02-15T18:24:19;22.10;52.40
24087;DHT22;22893;50.572;7.234;2023-02-15T18:26:47;22.10;52.40
24087;DHT22;22893;50.572;7.234;2023-02-15T18:29:15;22.10;52.40
24087;DHT22;22893;50.572;7.234;2023-02-15T18:31:44;22.10;52.40
24087;DHT22;22893;50.572;7.234;2023-02-15T18:34:26;22.10;52.40
24087;DHT22;22893;50.572;7.234;2023-02-15T18:36:53;22.10;52.30
24087;DHT22;22893;50.572;7.234;2023-02-15T18:39:30;22.10;52.30
24087;DHT22;22893;50.572;7.234;2023-02-15T18:41:57;22.10;52.60
24087;DHT22;22893;50.572;7.234;2023-02-15T18:44:25;22.10;52.20
24087;DHT22;22893;50.572;7.234;2023-02-15T18:46:53;22.10;52.20
24087;DHT22;22893;50.572;7.234;2023-02-15T18:49:21;22.10;52.20
24087;DHT22;22893;50.572;7.234;2023-02-15T18:51:48;22.10;52.20
24087;DHT22;22893;50.572;7.234;2023-02-15T18:54:21;22.10;52.10
24087;DHT22;22893;50.572;7.234;2023-02-15T18:56:55;22.10;52.20
24087;DHT22;22893;50.572;7.234;2023-02-15T18:59:24;22.10;52.10
24087;DHT22;22893;50.572;7.234;2023-02-15T19:01:52;22.10;52.10
24087;DHT22;22893;50.572;7.234;2023-02-15T19:04:21;22.10;52.10
24087;DHT22;22893;50.572;7.234;2023-02-15T19:06:49;22.10;52.00
24087;DHT22;22893;50.572;7.234;2023-02-15T19:09:18;22.10;52.10
24087;DHT22;22893;50.572;7.234;2023-02-15T19:11:54;22.10;52.00
24087;DHT22;22893;50.572;7.234;2023-02-15T19:14:31;22.10;52.00
24087;DHT22;22893;50.572;7.234;2023-02-15T19:16:59;22.10;52.10
24087;DHT22;22893;50.572;7.234;2023-02-15T19:19:27;22.10;52.00
24087;DHT22;22893;50.572;7.234;2023-02-15T19:21:55;22.10;52.00
24087;DHT22;22893;50.572;7.234;2023-02-15T19:24:27;22.10;52.00
24087;DHT22;22893;50.572;7.234;2023-02-15T19:26:53;22.10;52.00
24087;DHT22;22893;50.572;7.234;2023-02-15T19:29:26;22.10;52.00
24087;DHT22;22893;50.572;7.234;2023-02-15T19:31:54;22.10;52.10
24087;DHT22;22893;50.572;7.234;2023-02-15T19:34:22;22.10;52.00
24087;DHT22;22893;50.572;7.234;2023-02-15T19:36:52;22.10;52.00
24087;DHT22;22893;50.572;7.234;2023-02-15T19:39:24;22.10;52.00
24087;DHT22;22893;50.572;7.234;2023-02-15T19:41:53;22.10;51.90
24087;DHT22;22893;50.572;7.234;2023-02-15T19:44:20;22.10;51.80
24087;DHT22;22893;50.572;7.234;2023-02-15T19:46:48;22.10;51.90
24087;DHT22;22893;50.572;7.234;2023-02-15T19:49:19;22.10;52.00
24087;DHT22;22893;50.572;7.234;2023-02-15T19:51:45;22.10;51.80
24087;DHT22;22893;50.572;7.234;2023-02-15T19:56:53;22.10;51.90
24087;DHT22;22893;50.572;7.234;2023-02-15T19:59:26;22.10;51.80
24087;DHT22;22893;50.572;7.234;2023-02-15T20:01:56;22.10;51.80
24087;DHT22;22893;50.572;7.234;2023-02-15T20:04:25;22.10;51.80
24087;DHT22;22893;50.572;7.234;2023-02-15T20:06:55;22.10;51.80
24087;DHT22;22893;50.572;7.234;2023-02-15T20:09:29;22.10;51.80
24087;DHT22;22893;50.572;7.234;2023-02-15T20:11:54;22.10;51.80
24087;DHT22;22893;50.572;7.234;2023-02-15T20:14:22;22.10;51.70
24087;DHT22;22893;50.572;7.234;2023-02-15T20:16:50;22.10;51.70
24087;DHT22;22893;50.572;7.234;2023-02-15T20:19:18;22.10;51.80
24087;DHT22;22893;50.572;7.234;2023-02-15T20:21:46;22.10;51.70
24087;DHT22;22893;50.572;7.234;2023-02-15T20:24:21;22.10;51.80
24087;DHT22;22893;50.572;7.234;2023-02-15T20:26:49;22.10;52.00
24087;DHT22;22893;50.572;7.234;2023-02-15T20:29:18;22.10;52.10
24087;DHT22;22893;50.572;7.234;2023-02-15T20:31:45;22.10;52.10
24087;DHT22;22893;50.572;7.234;2023-02-15T20:34:13;22.10;52.40
24087;DHT22;22893;50.572;7.234;2023-02-15T20:36:41;22.10;52.50
24087;DHT22;22893;50.572;7.234;2023-02-15T20:39:14;22.10;52.60
24087;DHT22;22893;50.572;7.234;2023-02-15T20:41:42;22.10;52.80
24087;DHT22;22893;50.572;7.234;2023-02-15T20:46:56;22.10;52.60
24087;DHT22;22893;50.572;7.234;2023-02-15T20:49:21;22.10;52.60
24087;DHT22;22893;50.572;7.234;2023-02-15T20:51:52;22.10;52.60
24087;DHT22;22893;50.572;7.234;2023-02-15T20:54:23;22.10;52.60
24087;DHT22;22893;50.572;7.234;2023-02-15T20:56:51;22.10;52.60
24087;DHT22;22893;50.572;7.234;2023-02-15T20:59:22;22.20;52.60
24087;DHT22;22893;50.572;7.234;2023-02-15T21:01:53;22.10;52.60
24087;DHT22;22893;50.572;7.234;2023-02-15T21:04:22;22.10;52.60
24087;DHT22;22893;50.572;7.234;2023-02-15T21:06:51;22.10;52.60
24087;DHT22;22893;50.572;7.234;2023-02-15T21:09:18;22.10;52.60
24087;DHT22;22893;50.572;7.234;2023-02-15T21:11:46;22.10;52.60
24087;DHT22;22893;50.572;7.234;2023-02-15T21:14:20;22.10;52.50
24087;DHT22;22893;50.572;7.234;2023-02-15T21:16:49;22.10;52.60
24087;DHT22;22893;50.572;7.234;2023-02-15T21:19:20;22.10;52.50
24087;DHT22;22893;50.572;7.234;2023-02-15T21:21:50;22.10;52.50
24087;DHT22;22893;50.572;7.234;2023-02-15T21:24:27;22.10;52.50
24087;DHT22;22893;50.572;7.234;2023-02-15T21:26:52;22.10;52.80
24087;DHT22;22893;50.572;7.234;2023-02-15T21:29:23;22.10;53.10
24087;DHT22;22893;50.572;7.234;2023-02-15T21:31:51;22.10;53.20
24087;DHT22;22893;50.572;7.234;2023-02-15T21:34:19;22.10;53.20
24087;DHT22;22893;50.572;7.234;2023-02-15T21:36:48;22.10;53.10
24087;DHT22;22893;50.572;7.234;2023-02-15T21:39:21;22.10;52.90
24087;DHT22;22893;50.572;7.234;2023-02-15T21:41:50;22.10;52.90
24087;DHT22;22893;50.572;7.234;2023-02-15T21:44:37;22.10;52.70
24087;DHT22;22893;50.572;7.234;2023-02-15T21:47:29;22.10;52.80
24087;DHT22;22893;50.572;7.234;2023-02-15T21:50:14;22.10;52.60
24087;DHT22;22893;50.572;7.234;2023-02-15T21:53:00;22.10;52.50
24087;DHT22;22893;50.572;7.234;2023-02-15T21:55:30;22.10;52.50
24087;DHT22;22893;50.572;7.234;2023-02-15T21:58:00;22.10;52.60
24087;DHT22;22893;50.572;7.234;2023-02-15T22:00:47;22.10;52.40
24087;DHT22;22893;50.572;7.234;2023-02-15T22:03:15;22.10;52.10
24087;DHT22;22893;50.572;7.234;2023-02-15T22:05:43;22.10;52.20
24087;DHT22;22893;50.572;7.234;2023-02-15T22:08:11;22.10;52.20
24087;DHT22;22893;50.572;7.234;2023-02-15T22:10:40;22.10;52.10
24087;DHT22;22893;50.572;7.234;2023-02-15T22:13:13;22.10;52.10
24087;DHT22;22893;50.572;7.234;2023-02-15T22:15:41;22.00;52.10
24087;DHT22;22893;50.572;7.234;2023-02-15T22:18:27;22.10;52.20
24087;DHT22;22893;50.572;7.234;2023-02-15T22:20:51;22.00;52.20
24087;DHT22;22893;50.572;7.234;2023-02-15T22:23:19;22.00;52.20
24087;DHT22;22893;50.572;7.234;2023-02-15T22:26:00;22.00;52.20
24087;DHT22;22893;50.572;7.234;2023-02-15T22:28:30;22.00;52.10
